Time;durP1;ratioP1;P1;durP2;ratioP2;P2;SDS_P1;SDS_P2;PMS_P1;PMS_P2;Temp;Humidity;BMP_temperature;BMP_pressure;BME280_temperature;BME280_humidity;BME280_pressure;Samples;Min_cycle;Max_cycle;Signal;HPM_P1;HPM_P2
2021/01/25 00:00:20;;;;;;;371.30;100.53;;;11.70;99.90;;;;;;4989518;28;20434;-78
2021/01/25 00:02:48;;;;;;;371.48;105.10;;;11.70;99.90;;;;;;4990282;28;20435;-78
2021/01/25 00:05:15;;;;;;;369.27;102.13;;;11.70;99.90;;;;;;5004772;28;20539;-78
2021/01/25 00:07:43;;;;;;;367.15;100.22;;;11.70;99.90;;;;;;5001504;28;20517;-78
2021/01/25 00:10:10;;;;;;;363.50;96.63;;;11.70;99.90;;;;;;5031549;28;20438;-77
2021/01/25 00:12:37;;;;;;;364.33;101.18;;;11.70;99.90;;;;;;5002832;28;20443;-78
2021/01/25 00:15:06;;;;;;;378.30;106.55;;;11.70;99.90;;;;;;5004080;28;20431;-78
2021/01/25 00:17:33;;;;;;;372.65;105.82;;;11.70;99.90;;;;;;4998021;28;20442;-78
2021/01/25 00:20:01;;;;;;;370.98;104.18;;;11.70;99.90;;;;;;4981561;28;20430;-78
2021/01/25 00:22:28;;;;;;;372.65;107.03;;;11.70;99.90;;;;;;5012482;28;20426;-78
2021/01/25 00:24:55;;;;;;;374.50;102.03;;;11.70;99.90;;;;;;4996236;28;20495;-78
2021/01/25 00:27:22;;;;;;;367.10;103.50;;;11.70;99.90;;;;;;4987270;28;20510;-77
2021/01/25 00:29:50;;;;;;;370.98;105.80;;;11.70;99.90;;;;;;4983553;28;20442;-78
2021/01/25 00:32:17;;;;;;;372.27;106.70;;;11.70;99.90;;;;;;4984936;28;20445;-77
2021/01/25 00:34:44;;;;;;;369.63;103.80;;;11.70;99.90;;;;;;5000565;28;21102;-78
2021/01/25 00:37:12;;;;;;;365.13;102.97;;;11.70;99.90;;;;;;5000688;28;20443;-78
2021/01/25 00:39:39;;;;;;;366.25;102.75;;;11.70;99.90;;;;;;5004075;28;20423;-79
2021/01/25 00:42:06;;;;;;;373.15;101.85;;;11.70;99.90;;;;;;5020728;28;20439;-80
2021/01/25 00:44:32;;;;;;;383.42;103.80;;;11.70;99.90;;;;;;5004168;28;20501;-80
2021/01/25 00:47:00;;;;;;;383.80;106.30;;;11.70;99.90;;;;;;5025585;28;20431;-79
2021/01/25 00:49:28;;;;;;;379.15;104.50;;;11.70;99.90;;;;;;4998267;28;20431;-79
2021/01/25 00:51:55;;;;;;;384.17;107.38;;;11.70;99.90;;;;;;5002947;28;20442;-80
2021/01/25 00:54:22;;;;;;;383.42;104.97;;;11.70;99.90;;;;;;5018640;28;20495;-79
2021/01/25 00:56:50;;;;;;;385.77;107.18;;;11.70;99.90;;;;;;5004002;28;20427;-79
2021/01/25 00:59:17;;;;;;;380.20;105.43;;;11.70;99.90;;;;;;5000795;28;20429;-79
2021/01/25 01:01:44;;;;;;;380.92;103.32;;;11.70;99.90;;;;;;5020932;28;20432;-79
2021/01/25 01:04:10;;;;;;;382.10;104.65;;;11.70;99.90;;;;;;4996848;28;20511;-77
2021/01/25 01:06:38;;;;;;;383.92;105.90;;;11.70;99.90;;;;;;5003620;28;20423;-78
2021/01/25 01:09:05;;;;;;;378.95;105.97;;;11.70;99.90;;;;;;5003607;28;20437;-78
2021/01/25 01:11:33;;;;;;;378.25;104.53;;;11.60;99.90;;;;;;4984140;28;20412;-78
2021/01/25 01:14:00;;;;;;;377.30;100.68;;;11.70;99.90;;;;;;4997595;28;20427;-78
2021/01/25 01:16:27;;;;;;;379.45;103.60;;;11.60;99.90;;;;;;5015153;28;20925;-78
2021/01/25 01:18:55;;;;;;;374.60;99.57;;;11.70;99.90;;;;;;5000491;28;20453;-78
2021/01/25 01:21:22;;;;;;;373.50;100.32;;;11.70;99.90;;;;;;4987010;28;20480;-78
2021/01/25 01:23:49;;;;;;;370.77;103.33;;;11.60;99.90;;;;;;4997929;28;20437;-78
2021/01/25 01:26:17;;;;;;;364.52;98.55;;;11.60;99.90;;;;;;4997966;28;20940;-78
2021/01/25 01:28:45;;;;;;;369.50;99.60;;;11.70;99.90;;;;;;5000504;28;20434;-78
2021/01/25 01:31:15;;;;;;;367.05;98.10;;;11.60;99.90;;;;;;4988128;28;20457;-78
2021/01/25 01:33:42;;;;;;;368.38;97.22;;;11.60;99.90;;;;;;5035459;28;21969;-78
2021/01/25 01:36:09;;;;;;;369.80;98.20;;;11.60;99.90;;;;;;5000803;28;20427;-78
2021/01/25 01:38:38;;;;;;;367.50;97.27;;;11.70;99.90;;;;;;5001956;28;20430;-78
2021/01/25 01:41:05;;;;;;;368.13;100.22;;;11.60;99.90;;;;;;5002879;28;20526;-78
2021/01/25 01:43:32;;;;;;;371.13;97.22;;;11.60;99.90;;;;;;4998599;28;20426;-78
2021/01/25 01:46:00;;;;;;;365.88;99.28;;;11.60;99.90;;;;;;4983596;28;20438;-78
2021/01/25 01:48:28;;;;;;;372.63;98.95;;;11.60;99.90;;;;;;5002707;28;20421;-78
2021/01/25 01:50:56;;;;;;;376.48;100.47;;;11.60;99.90;;;;;;4988067;28;20431;-78
2021/01/25 01:53:24;;;;;;;379.45;104.78;;;11.60;99.90;;;;;;5012928;28;20455;-78
2021/01/25 01:55:51;;;;;;;366.77;99.38;;;11.60;99.90;;;;;;5002236;28;21260;-78
2021/01/25 01:58:21;;;;;;;363.05;96.28;;;11.60;99.90;;;;;;4985092;28;20428;-78
2021/01/25 02:00:48;;;;;;;364.55;95.50;;;11.60;99.90;;;;;;4998696;28;20435;-78
2021/01/25 02:03:16;;;;;;;360.38;96.72;;;11.60;99.90;;;;;;4987000;28;20439;-78
2021/01/25 02:05:43;;;;;;;358.52;98.38;;;11.60;99.90;;;;;;4987165;28;20439;-78
2021/01/25 02:08:11;;;;;;;365.30;99.93;;;11.60;99.90;;;;;;5003703;28;20455;-78
2021/01/25 02:10:38;;;;;;;366.10;101.13;;;11.60;99.90;;;;;;5016987;28;20455;-78
2021/01/25 02:13:06;;;;;;;383.45;101.10;;;11.60;99.90;;;;;;4983039;28;20448;-77
2021/01/25 02:15:33;;;;;;;373.65;101.25;;;11.70;99.90;;;;;;4997208;28;20428;-78
2021/01/25 02:18:01;;;;;;;374.10;102.10;;;11.70;99.90;;;;;;4987775;28;20501;-77
2021/01/25 02:20:33;;;;;;;375.80;102.75;;;11.80;99.90;;;;;;4983122;28;20423;-77
2021/01/25 02:23:17;;;;;;;373.90;106.43;;;11.80;99.90;;;;;;5035517;28;20529;-78
2021/01/25 02:25:50;;;;;;;371.23;99.93;;;11.80;99.90;;;;;;5017018;28;20423;-78
2021/01/25 02:28:18;;;;;;;374.60;104.90;;;11.80;99.90;;;;;;5012572;28;20423;-77
2021/01/25 02:30:47;;;;;;;369.73;101.07;;;11.80;99.90;;;;;;5003472;28;20448;-77
2021/01/25 02:33:16;;;;;;;370.95;104.63;;;11.80;99.90;;;;;;5001229;28;20474;-78
2021/01/25 02:35:43;;;;;;;374.88;103.72;;;11.80;99.90;;;;;;5020251;28;20986;-78
2021/01/25 02:38:12;;;;;;;372.70;101.63;;;11.80;99.90;;;;;;5009232;28;20431;-78
2021/01/25 02:40:40;;;;;;;370.33;98.60;;;11.80;99.90;;;;;;4988442;28;20427;-78
2021/01/25 02:43:07;;;;;;;376.88;105.53;;;11.80;99.90;;;;;;5002403;28;20473;-78
2021/01/25 02:45:36;;;;;;;370.58;105.35;;;11.80;99.90;;;;;;4998021;28;20470;-78
2021/01/25 02:48:05;;;;;;;366.48;97.88;;;11.80;99.90;;;;;;4986662;28;20437;-78
2021/01/25 02:50:32;;;;;;;362.33;97.10;;;11.80;99.90;;;;;;4996510;28;20431;-78
2021/01/25 02:53:00;;;;;;;370.00;101.78;;;11.80;99.90;;;;;;5014658;28;20422;-78
2021/01/25 02:55:28;;;;;;;366.42;98.28;;;11.80;99.90;;;;;;4983793;28;20569;-78
2021/01/25 02:57:56;;;;;;;366.77;100.88;;;11.70;99.90;;;;;;5014022;28;20427;-78
2021/01/25 03:00:24;;;;;;;364.80;100.97;;;11.70;99.90;;;;;;4984854;28;20437;-78
2021/01/25 03:02:52;;;;;;;365.15;99.20;;;11.70;99.90;;;;;;4987723;28;20895;-78
2021/01/25 03:05:20;;;;;;;363.67;97.55;;;11.70;99.90;;;;;;5035471;28;20461;-78
2021/01/25 03:07:50;;;;;;;363.20;98.53;;;11.70;99.90;;;;;;5028180;28;20445;-79
2021/01/25 03:10:17;;;;;;;360.43;97.63;;;11.70;99.90;;;;;;5002036;28;20546;-79
2021/01/25 03:12:44;;;;;;;359.45;98.30;;;11.70;99.90;;;;;;4987815;28;20450;-79
2021/01/25 03:15:14;;;;;;;359.30;97.97;;;11.70;99.90;;;;;;4985561;28;20445;-78
2021/01/25 03:17:41;;;;;;;354.70;96.38;;;11.70;99.90;;;;;;4990770;28;20432;-79
2021/01/25 03:20:10;;;;;;;354.35;93.75;;;11.70;99.90;;;;;;5003618;28;20415;-79
2021/01/25 03:22:37;;;;;;;363.10;100.50;;;11.70;99.90;;;;;;5014928;28;20614;-78
2021/01/25 03:25:04;;;;;;;365.75;96.05;;;11.60;99.90;;;;;;5000285;28;20458;-78
2021/01/25 03:27:31;;;;;;;364.30;99.82;;;11.60;99.90;;;;;;5020626;28;20447;-78
2021/01/25 03:29:58;;;;;;;360.05;99.18;;;11.60;99.90;;;;;;5036729;28;20424;-78
2021/01/25 03:32:28;;;;;;;355.15;98.13;;;11.60;99.90;;;;;;5002122;28;20432;-78
2021/01/25 03:34:55;;;;;;;355.80;97.90;;;11.60;99.90;;;;;;5004369;28;20441;-79
2021/01/25 03:37:23;;;;;;;352.77;97.88;;;11.60;99.90;;;;;;4999909;28;20427;-79
2021/01/25 03:39:50;;;;;;;351.35;94.72;;;11.60;99.90;;;;;;4997747;28;21079;-79
2021/01/25 03:42:18;;;;;;;355.35;97.20;;;11.60;99.90;;;;;;4982691;28;20483;-79
2021/01/25 03:44:45;;;;;;;359.35;98.80;;;11.60;99.90;;;;;;5003779;28;20445;-79
2021/01/25 03:47:12;;;;;;;356.65;97.63;;;11.60;99.90;;;;;;4988584;28;20424;-79
2021/01/25 03:50:00;;;;;;;354.17;96.65;;;11.60;99.90;;;;;;4980076;28;21207;-79
2021/01/25 03:52:29;;;;;;;361.45;97.30;;;11.60;99.90;;;;;;5017794;28;20454;-79
2021/01/25 03:54:56;;;;;;;358.70;97.35;;;11.60;99.90;;;;;;4990033;28;20423;-79
2021/01/25 03:57:23;;;;;;;356.17;95.65;;;11.60;99.90;;;;;;5017827;28;20435;-79
2021/01/25 03:59:50;;;;;;;347.63;95.82;;;11.60;99.90;;;;;;5002832;28;20414;-79
2021/01/25 04:02:17;;;;;;;348.13;96.03;;;11.60;99.90;;;;;;5021886;28;20431;-78
2021/01/25 04:04:43;;;;;;;352.08;96.03;;;11.60;99.90;;;;;;5004185;28;20439;-78
2021/01/25 04:07:11;;;;;;;354.30;97.20;;;11.60;99.90;;;;;;5019312;28;20439;-79
2021/01/25 04:09:39;;;;;;;356.27;98.68;;;11.60;99.90;;;;;;5004104;28;20425;-78
2021/01/25 04:12:07;;;;;;;355.83;96.50;;;11.60;99.90;;;;;;5034691;28;20983;-78
2021/01/25 04:14:34;;;;;;;352.15;97.30;;;11.60;99.90;;;;;;5003914;28;20470;-78
2021/01/25 04:17:05;;;;;;;353.08;98.20;;;11.60;99.90;;;;;;5004857;28;20427;-79
2021/01/25 04:19:32;;;;;;;360.92;101.65;;;11.60;99.90;;;;;;5019560;28;20458;-78
2021/01/25 04:22:00;;;;;;;360.90;100.45;;;11.60;99.90;;;;;;5001764;28;20430;-78
2021/01/25 04:24:28;;;;;;;354.50;95.78;;;11.50;99.90;;;;;;4983867;28;20507;-79
2021/01/25 04:26:56;;;;;;;359.85;100.25;;;11.60;99.90;;;;;;5003313;28;20462;-79
2021/01/25 04:29:23;;;;;;;352.60;98.15;;;11.50;99.90;;;;;;4998623;28;21056;-79
2021/01/25 04:31:50;;;;;;;358.08;100.63;;;11.50;99.90;;;;;;4997762;28;20436;-78
2021/01/25 04:34:17;;;;;;;370.90;101.70;;;11.60;99.90;;;;;;4988215;28;20434;-78
2021/01/25 04:36:44;;;;;;;372.58;103.65;;;11.60;99.90;;;;;;4996808;28;20424;-78
2021/01/25 04:39:12;;;;;;;414.77;124.40;;;11.60;99.90;;;;;;5012610;28;20445;-78
2021/01/25 04:41:40;;;;;;;411.80;117.57;;;11.50;99.90;;;;;;4980577;28;20431;-78
2021/01/25 04:44:08;;;;;;;411.60;117.20;;;11.50;99.90;;;;;;5012179;28;20454;-78
2021/01/25 04:46:36;;;;;;;413.88;120.70;;;11.60;99.90;;;;;;4995406;28;20457;-78
2021/01/25 04:49:07;;;;;;;410.83;118.97;;;11.60;99.90;;;;;;4980958;28;20457;-79
2021/01/25 04:51:34;;;;;;;416.08;125.00;;;11.60;99.90;;;;;;5018133;28;20454;-78
2021/01/25 04:54:02;;;;;;;413.90;121.05;;;11.60;99.90;;;;;;4998197;28;20427;-78
2021/01/25 04:56:30;;;;;;;413.35;121.15;;;11.50;99.90;;;;;;5001179;28;20428;-78
2021/01/25 04:59:04;;;;;;;414.90;118.93;;;11.60;99.90;;;;;;5002780;28;20618;-78
2021/01/25 05:01:32;;;;;;;419.30;125.25;;;11.60;99.90;;;;;;5001942;28;20426;-77
2021/01/25 05:03:58;;;;;;;421.10;127.60;;;11.50;99.90;;;;;;4997577;28;20781;-78
2021/01/25 05:06:26;;;;;;;423.05;127.72;;;11.50;99.90;;;;;;5016016;28;20419;-77
2021/01/25 05:08:55;;;;;;;419.98;127.45;;;11.50;99.90;;;;;;4971611;28;20445;-77
2021/01/25 05:11:22;;;;;;;418.20;124.60;;;11.50;99.90;;;;;;5010626;28;20419;-78
2021/01/25 05:13:49;;;;;;;421.55;124.72;;;11.50;99.90;;;;;;5005300;28;20431;-78
2021/01/25 05:16:19;;;;;;;422.47;128.37;;;11.50;99.90;;;;;;4980284;28;20435;-78
2021/01/25 05:18:47;;;;;;;417.43;121.53;;;11.50;99.90;;;;;;4987064;28;20462;-77
2021/01/25 05:21:14;;;;;;;416.52;117.53;;;11.50;99.90;;;;;;5031006;28;20989;-78
2021/01/25 05:23:41;;;;;;;415.67;121.13;;;11.50;99.90;;;;;;4983770;28;20433;-77
2021/01/25 05:26:09;;;;;;;417.13;121.50;;;11.50;99.90;;;;;;4997981;28;20435;-78
2021/01/25 05:28:42;;;;;;;436.23;137.65;;;11.50;99.90;;;;;;5010212;28;22134;-78
2021/01/25 05:31:20;;;;;;;431.40;134.95;;;11.50;99.90;;;;;;4999189;28;20430;-78
2021/01/25 05:33:49;;;;;;;428.00;130.73;;;11.50;99.90;;;;;;4982796;28;20419;-78
2021/01/25 05:36:20;;;;;;;428.42;130.73;;;11.50;99.90;;;;;;4999210;28;20424;-78
2021/01/25 05:38:48;;;;;;;435.52;142.20;;;11.50;99.90;;;;;;5027922;28;20429;-78
2021/01/25 05:41:17;;;;;;;438.40;146.57;;;11.50;99.90;;;;;;4984339;28;20429;-78
2021/01/25 05:43:44;;;;;;;435.25;140.68;;;11.50;99.90;;;;;;5000516;28;20491;-78
2021/01/25 05:46:12;;;;;;;434.13;135.30;;;11.50;99.90;;;;;;5011289;28;20430;-78
2021/01/25 05:48:40;;;;;;;435.02;146.77;;;11.50;99.90;;;;;;5017415;28;20425;-78
2021/01/25 05:51:15;;;;;;;433.63;137.07;;;11.50;99.90;;;;;;5015610;28;20434;-78
2021/01/25 05:53:43;;;;;;;432.90;132.35;;;11.50;99.90;;;;;;4997693;28;22267;-78
2021/01/25 05:56:11;;;;;;;435.10;144.23;;;11.50;99.90;;;;;;5018378;28;20512;-78
2021/01/25 05:58:39;;;;;;;434.55;136.80;;;11.50;99.90;;;;;;5016004;28;20431;-78
2021/01/25 06:01:06;;;;;;;432.70;134.13;;;11.50;99.90;;;;;;5000360;28;22674;-78
2021/01/25 06:03:36;;;;;;;434.07;140.57;;;11.50;99.90;;;;;;5030498;28;20428;-78
2021/01/25 06:06:08;;;;;;;432.20;136.70;;;11.50;99.90;;;;;;5017899;28;20450;-78
2021/01/25 06:09:02;;;;;;;431.08;126.55;;;11.50;99.90;;;;;;5036883;28;20533;-78
2021/01/25 06:11:32;;;;;;;434.55;140.55;;;11.50;99.90;;;;;;5015768;28;25087;-78
2021/01/25 06:14:01;;;;;;;431.00;136.47;;;11.50;99.90;;;;;;4998833;28;20434;-78
2021/01/25 06:16:29;;;;;;;430.75;137.30;;;11.60;99.90;;;;;;5018601;28;20441;-78
2021/01/25 06:18:59;;;;;;;430.45;137.70;;;11.60;99.90;;;;;;5016312;28;20449;-79
2021/01/25 06:21:28;;;;;;;428.83;135.23;;;11.60;99.90;;;;;;5034107;28;20459;-78
2021/01/25 06:24:01;;;;;;;429.70;129.90;;;11.60;99.90;;;;;;4995470;28;20436;-78
2021/01/25 06:26:30;;;;;;;429.42;129.18;;;11.60;99.90;;;;;;5019152;28;20459;-78
2021/01/25 06:29:01;;;;;;;429.48;130.63;;;11.60;99.90;;;;;;5017484;28;20482;-79
2021/01/25 06:31:28;;;;;;;429.15;132.43;;;11.60;99.90;;;;;;4997280;28;20462;-79
2021/01/25 06:34:01;;;;;;;424.60;122.87;;;11.60;99.90;;;;;;5001342;28;21329;-78
2021/01/25 06:36:28;;;;;;;426.52;130.40;;;11.60;99.90;;;;;;5031417;28;20427;-78
2021/01/25 06:39:00;;;;;;;426.38;128.50;;;11.60;99.90;;;;;;4984849;28;20438;-77
2021/01/25 06:41:36;;;;;;;428.27;133.73;;;11.60;99.90;;;;;;5000470;28;20433;-78
2021/01/25 06:44:04;;;;;;;425.10;126.82;;;11.60;99.90;;;;;;5012613;28;20428;-78
2021/01/25 06:46:33;;;;;;;424.23;126.15;;;11.60;99.90;;;;;;4995534;28;20438;-78
2021/01/25 06:49:08;;;;;;;425.20;128.82;;;11.60;99.90;;;;;;5035628;28;20450;-78
2021/01/25 06:51:40;;;;;;;426.27;131.88;;;11.70;99.90;;;;;;4997019;28;20451;-78
2021/01/25 06:54:12;;;;;;;425.13;128.70;;;11.70;99.90;;;;;;5016825;28;20516;-78
2021/01/25 06:56:46;;;;;;;423.55;124.22;;;11.70;99.90;;;;;;5008022;28;21512;-78
2021/01/25 06:59:13;;;;;;;422.90;121.75;;;11.70;99.90;;;;;;5004203;28;21253;-79
2021/01/25 07:01:50;;;;;;;432.65;134.50;;;11.70;99.90;;;;;;5030209;28;20441;-79
2021/01/25 07:04:19;;;;;;;431.70;131.95;;;11.70;99.90;;;;;;5035555;28;25104;-78
2021/01/25 07:06:49;;;;;;;433.85;138.60;;;11.70;99.90;;;;;;5017907;28;20469;-78
2021/01/25 07:09:27;;;;;;;430.35;131.20;;;11.70;99.90;;;;;;5021368;28;20492;-78
2021/01/25 07:11:56;;;;;;;429.45;131.48;;;11.70;99.90;;;;;;5005246;28;20681;-78
2021/01/25 07:14:25;;;;;;;429.45;130.23;;;11.70;99.90;;;;;;5006317;28;20448;-78
2021/01/25 07:16:55;;;;;;;430.75;133.98;;;11.70;99.90;;;;;;5016422;28;20444;-78
2021/01/25 07:19:23;;;;;;;429.55;127.63;;;11.70;99.90;;;;;;5020688;28;20457;-78
2021/01/25 07:21:53;;;;;;;429.50;130.73;;;11.70;99.90;;;;;;5004102;28;20500;-78
2021/01/25 07:24:30;;;;;;;431.42;137.38;;;11.70;99.90;;;;;;5018938;28;20442;-79
2021/01/25 07:26:59;;;;;;;430.17;132.10;;;11.70;99.90;;;;;;5012592;28;20483;-78
2021/01/25 07:29:27;;;;;;;428.77;129.23;;;11.60;99.90;;;;;;5018258;28;20463;-78
2021/01/25 07:31:55;;;;;;;428.17;132.68;;;11.60;99.90;;;;;;5020255;28;20484;-78
2021/01/25 07:34:25;;;;;;;427.43;130.70;;;11.60;99.90;;;;;;5004421;28;20425;-79
2021/01/25 07:36:53;;;;;;;428.17;131.23;;;11.60;99.90;;;;;;5002805;28;20496;-78
2021/01/25 07:39:21;;;;;;;428.58;129.57;;;11.60;99.90;;;;;;4989129;28;20456;-78
2021/01/25 07:41:49;;;;;;;427.90;126.90;;;11.60;99.90;;;;;;4999606;28;20435;-77
2021/01/25 07:44:23;;;;;;;425.48;124.90;;;11.60;99.90;;;;;;5009310;28;20432;-77
2021/01/25 07:46:50;;;;;;;429.48;129.73;;;11.60;99.90;;;;;;5009879;28;20441;-77
2021/01/25 07:49:27;;;;;;;426.98;126.72;;;11.60;99.90;;;;;;5002475;28;20445;-78
2021/01/25 07:52:02;;;;;;;427.25;124.28;;;11.60;99.90;;;;;;4987765;28;20442;-77
2021/01/25 07:54:31;;;;;;;427.00;127.07;;;11.50;99.90;;;;;;5003769;28;20442;-77
2021/01/25 07:57:22;;;;;;;427.10;129.93;;;11.50;99.90;;;;;;5015927;28;21329;-77
2021/01/25 07:59:50;;;;;;;426.73;129.57;;;11.50;99.90;;;;;;5018371;28;20437;-78
2021/01/25 08:02:20;;;;;;;427.65;131.32;;;11.50;99.90;;;;;;5004444;28;20577;-78
2021/01/25 08:04:48;;;;;;;426.58;126.75;;;11.50;99.90;;;;;;5034252;28;20435;-78
2021/01/25 08:07:18;;;;;;;429.67;134.23;;;11.50;99.90;;;;;;5004538;28;20427;-77
2021/01/25 08:09:45;;;;;;;431.33;137.43;;;11.50;99.90;;;;;;4982895;28;21222;-78
2021/01/25 08:12:15;;;;;;;430.80;131.70;;;11.50;99.90;;;;;;5004294;28;20518;-78
2021/01/25 08:14:48;;;;;;;431.00;131.10;;;11.50;99.90;;;;;;5006215;28;20450;-79
2021/01/25 08:17:20;;;;;;;433.20;137.93;;;11.50;99.90;;;;;;5015952;28;20431;-79
2021/01/25 08:19:52;;;;;;;432.50;132.02;;;11.50;99.90;;;;;;5015754;28;20925;-80
2021/01/25 08:22:25;;;;;;;433.40;134.43;;;11.50;99.90;;;;;;5029481;28;20431;-79
2021/01/25 08:24:56;;;;;;;436.13;140.82;;;11.50;99.90;;;;;;5011183;28;20990;-79
2021/01/25 08:27:24;;;;;;;433.35;134.60;;;11.50;99.90;;;;;;4997021;28;20434;-79
2021/01/25 08:30:01;;;;;;;433.75;133.48;;;11.50;99.90;;;;;;4980555;28;20439;-79
2021/01/25 08:32:31;;;;;;;439.17;145.77;;;11.50;99.90;;;;;;5009370;28;20518;-80
2021/01/25 08:35:00;;;;;;;435.60;141.98;;;11.50;99.90;;;;;;5031952;28;20485;-80
2021/01/25 08:37:30;;;;;;;433.48;134.95;;;11.50;99.90;;;;;;4980270;28;20429;-80
2021/01/25 08:39:58;;;;;;;434.30;133.23;;;11.50;99.90;;;;;;5018604;28;20455;-79
2021/01/25 08:42:32;;;;;;;435.35;138.18;;;11.50;99.90;;;;;;4988212;28;20453;-80
2021/01/25 08:45:06;;;;;;;432.43;132.40;;;11.50;99.90;;;;;;5019887;28;20435;-79
2021/01/25 08:47:35;;;;;;;437.55;140.98;;;11.50;99.90;;;;;;5012430;28;20414;-79
2021/01/25 08:50:15;;;;;;;437.25;142.25;;;11.50;99.90;;;;;;5009886;28;20442;-79
2021/01/25 08:52:43;;;;;;;438.90;146.95;;;11.50;99.90;;;;;;5008981;28;20769;-79
2021/01/25 08:55:14;;;;;;;435.40;134.38;;;11.50;99.90;;;;;;5014453;28;20842;-79
2021/01/25 08:57:43;;;;;;;434.60;139.38;;;11.40;99.90;;;;;;5012943;28;20487;-79
2021/01/25 09:00:16;;;;;;;437.67;144.35;;;11.50;99.90;;;;;;4993566;28;20502;-79
2021/01/25 09:02:44;;;;;;;435.58;133.73;;;11.50;99.90;;;;;;5000611;28;20426;-79
2021/01/25 09:05:12;;;;;;;432.50;128.75;;;11.50;99.90;;;;;;5027805;28;20427;-79
2021/01/25 09:07:51;;;;;;;433.07;133.17;;;11.50;99.90;;;;;;5026905;28;20507;-79
2021/01/25 09:10:19;;;;;;;437.13;137.47;;;11.50;99.90;;;;;;4994766;28;20494;-79
2021/01/25 09:12:46;;;;;;;436.35;138.20;;;11.50;99.90;;;;;;5007576;28;20621;-79
2021/01/25 09:15:16;;;;;;;436.77;142.98;;;11.50;99.90;;;;;;4995568;28;20434;-79
2021/01/25 09:17:43;;;;;;;435.30;141.07;;;11.50;99.90;;;;;;4998146;28;20424;-79
2021/01/25 09:20:11;;;;;;;434.30;139.67;;;11.50;99.90;;;;;;5013232;28;20432;-80
2021/01/25 09:22:40;;;;;;;432.83;136.07;;;11.50;99.90;;;;;;5021523;28;20424;-79
2021/01/25 09:25:08;;;;;;;433.83;132.68;;;11.50;99.90;;;;;;5020538;28;20445;-78
2021/01/25 09:27:38;;;;;;;434.95;138.27;;;11.50;99.90;;;;;;5033350;28;20506;-78
2021/01/25 09:30:06;;;;;;;430.17;128.97;;;11.50;99.90;;;;;;5024049;28;20531;-79
2021/01/25 09:32:34;;;;;;;429.90;128.53;;;11.50;99.90;;;;;;5014569;28;21869;-78
2021/01/25 09:35:01;;;;;;;431.30;130.48;;;11.50;99.90;;;;;;5009246;28;20431;-78
2021/01/25 09:37:28;;;;;;;429.95;127.03;;;11.50;99.90;;;;;;4994529;28;20424;-78
2021/01/25 09:39:56;;;;;;;431.88;133.85;;;11.50;99.90;;;;;;4979074;28;20432;-78
2021/01/25 09:42:23;;;;;;;431.25;126.55;;;11.50;99.90;;;;;;4975219;28;20427;-78
2021/01/25 09:44:50;;;;;;;429.42;127.60;;;11.50;99.90;;;;;;4993097;28;20432;-78
2021/01/25 09:47:18;;;;;;;430.60;129.10;;;11.50;99.90;;;;;;4977089;28;20431;-78
2021/01/25 09:49:46;;;;;;;432.05;131.23;;;11.50;99.90;;;;;;4983058;28;20423;-78
2021/01/25 09:52:13;;;;;;;430.48;127.05;;;11.50;99.90;;;;;;4994784;28;20894;-78
2021/01/25 09:54:40;;;;;;;432.30;131.18;;;11.50;99.90;;;;;;5008691;28;20431;-78
2021/01/25 09:57:07;;;;;;;432.27;130.07;;;11.50;99.90;;;;;;5034879;28;20826;-78
2021/01/25 09:59:34;;;;;;;429.80;128.00;;;11.40;99.90;;;;;;4977223;28;20442;-78
2021/01/25 10:02:01;;;;;;;431.02;129.23;;;11.50;99.90;;;;;;4996557;28;20905;-78
2021/01/25 10:04:29;;;;;;;430.52;127.85;;;11.40;99.90;;;;;;4977425;28;20467;-78
2021/01/25 10:06:57;;;;;;;431.65;132.27;;;11.50;99.90;;;;;;4991687;28;20917;-78
2021/01/25 10:09:24;;;;;;;431.35;131.80;;;11.40;99.90;;;;;;4977872;28;20435;-78
2021/01/25 10:11:52;;;;;;;433.00;137.18;;;11.40;99.90;;;;;;4996134;28;20459;-78
2021/01/25 10:14:19;;;;;;;433.33;134.68;;;11.40;99.90;;;;;;5011448;28;20442;-78
2021/01/25 10:16:47;;;;;;;431.37;133.57;;;11.40;99.90;;;;;;4978964;28;20496;-78
2021/01/25 10:19:14;;;;;;;430.35;127.97;;;11.50;99.90;;;;;;4993269;28;21011;-78
2021/01/25 10:21:41;;;;;;;430.00;129.52;;;11.40;99.90;;;;;;4988827;28;20435;-78
2021/01/25 10:24:09;;;;;;;426.17;128.52;;;11.50;99.90;;;;;;4974433;28;20434;-78
2021/01/25 10:26:37;;;;;;;426.42;131.63;;;11.40;99.90;;;;;;4978156;28;20441;-79
2021/01/25 10:29:04;;;;;;;430.52;136.57;;;11.40;99.90;;;;;;4981013;28;20426;-78
2021/01/25 10:31:31;;;;;;;428.73;132.82;;;11.40;99.90;;;;;;5006791;28;20427;-79
2021/01/25 10:33:58;;;;;;;427.05;128.55;;;11.40;99.90;;;;;;4990954;28;20519;-78
2021/01/25 10:36:25;;;;;;;427.60;127.43;;;11.40;99.90;;;;;;4980361;28;20451;-78
2021/01/25 10:38:52;;;;;;;427.98;132.05;;;11.40;99.90;;;;;;5012067;28;20435;-79
2021/01/25 10:41:20;;;;;;;426.58;125.88;;;11.40;99.90;;;;;;4979766;28;20426;-80
2021/01/25 10:43:48;;;;;;;427.30;127.90;;;11.50;99.90;;;;;;4979107;28;20657;-79
2021/01/25 10:46:15;;;;;;;425.25;124.40;;;11.40;99.90;;;;;;4991188;28;20948;-79
2021/01/25 10:48:42;;;;;;;425.15;125.43;;;11.40;99.90;;;;;;4995279;28;20442;-79
2021/01/25 10:51:10;;;;;;;424.67;123.25;;;11.40;99.90;;;;;;4978789;28;20506;-79
2021/01/25 10:53:37;;;;;;;427.98;125.53;;;11.40;99.90;;;;;;4974550;28;20426;-79
2021/01/25 10:56:05;;;;;;;427.83;130.52;;;11.40;99.90;;;;;;4977482;28;20450;-79
2021/01/25 10:58:33;;;;;;;424.92;120.43;;;11.40;99.90;;;;;;4990996;28;20435;-79
2021/01/25 11:01:00;;;;;;;427.80;125.93;;;11.40;99.90;;;;;;4978210;28;20776;-79
2021/01/25 11:03:28;;;;;;;427.67;126.63;;;11.40;99.90;;;;;;4997725;28;20443;-79
2021/01/25 11:05:55;;;;;;;428.35;127.03;;;11.40;99.90;;;;;;4980386;28;20484;-79
2021/01/25 11:08:22;;;;;;;425.98;121.32;;;11.40;99.90;;;;;;5005690;28;20423;-79
2021/01/25 11:10:49;;;;;;;428.53;131.10;;;11.50;99.90;;;;;;4991961;28;20437;-80
2021/01/25 11:13:16;;;;;;;428.30;131.43;;;11.40;99.90;;;;;;4976174;28;20494;-80
2021/01/25 11:15:44;;;;;;;428.67;129.18;;;11.40;99.90;;;;;;4979770;28;20422;-79
2021/01/25 11:18:12;;;;;;;428.02;126.07;;;11.40;99.90;;;;;;4988408;28;20436;-79
2021/01/25 11:20:39;;;;;;;428.33;128.57;;;11.40;99.90;;;;;;4973739;28;20437;-79
2021/01/25 11:23:06;;;;;;;428.02;128.15;;;11.40;99.90;;;;;;4977391;28;20431;-79
2021/01/25 11:25:33;;;;;;;428.13;131.43;;;11.40;99.90;;;;;;4975778;28;20449;-79
2021/01/25 11:28:00;;;;;;;428.83;131.17;;;11.40;99.90;;;;;;4993324;28;20431;-80
2021/01/25 11:30:27;;;;;;;429.88;131.70;;;11.40;99.90;;;;;;4988097;28;20871;-79
2021/01/25 11:32:55;;;;;;;427.27;131.50;;;11.40;99.90;;;;;;5010776;28;20434;-80
2021/01/25 11:35:22;;;;;;;426.95;128.55;;;11.40;99.90;;;;;;4991153;28;20430;-79
2021/01/25 11:37:50;;;;;;;429.40;133.02;;;11.40;99.90;;;;;;4982654;28;20431;-79
2021/01/25 11:40:18;;;;;;;426.00;128.77;;;11.50;99.90;;;;;;4979361;28;20516;-79
2021/01/25 11:42:44;;;;;;;427.95;128.75;;;11.40;99.90;;;;;;5016359;28;20430;-80
2021/01/25 11:45:12;;;;;;;426.50;128.20;;;11.40;99.90;;;;;;5028456;28;20438;-79
2021/01/25 11:47:39;;;;;;;427.95;132.52;;;11.50;99.90;;;;;;4996864;28;20434;-80
2021/01/25 11:50:08;;;;;;;425.73;128.00;;;11.40;99.90;;;;;;4994102;28;20498;-80
2021/01/25 11:52:35;;;;;;;424.95;125.65;;;11.40;99.90;;;;;;5014822;28;20505;-79
2021/01/25 11:55:03;;;;;;;426.15;127.22;;;11.40;99.90;;;;;;4991552;28;22146;-79
2021/01/25 11:57:31;;;;;;;426.67;127.90;;;11.50;99.90;;;;;;4996400;28;20435;-80
2021/01/25 11:59:58;;;;;;;426.88;123.88;;;11.40;99.90;;;;;;4994016;28;20805;-80
2021/01/25 12:02:25;;;;;;;427.13;128.60;;;11.50;99.90;;;;;;4983025;28;20431;-80
2021/01/25 12:04:52;;;;;;;428.90;132.40;;;11.40;99.90;;;;;;4996524;28;20433;-80
2021/01/25 12:07:22;;;;;;;426.90;130.52;;;11.40;99.90;;;;;;4997153;28;20914;-79
2021/01/25 12:09:49;;;;;;;425.90;127.28;;;11.50;99.90;;;;;;5010101;28;20935;-79
2021/01/25 12:12:16;;;;;;;428.30;130.10;;;11.40;99.90;;;;;;5000283;28;20435;-79
2021/01/25 12:14:43;;;;;;;427.95;127.20;;;11.40;99.90;;;;;;4995896;28;20431;-79
2021/01/25 12:17:10;;;;;;;427.55;127.03;;;11.40;99.90;;;;;;4978310;28;20935;-78